Terminal Aerodrome Forecast
Issued by NWS Milwaukee/Sullivan, WI

Home | Current Version | Previous Version | Text Only | Print | Product List | Glossary On
Versions: 1 2 3 4 5 6 7 8 9 10 11 12 13 14 15 16 17 18 19 20 21 22 23 24 25 26 27 28 29 30 31 32
000
FTUS43 KMKX 281605 AAC
TAFMKE
TAF AMD
KMKE 281605Z 2816/2918 06009KT P6SM OVC003
     FM281800 09008KT P6SM SCT003
     FM282000 10006KT P6SM FEW025
     FM290600 00000KT 1SM BR SCT045
     FM290900 00000KT 3/4SM BR SCT035
     FM291400 VRB03KT P6SM SCT130=

USA.gov is the U.S. government's official web portal to all federal, state and local government web resources and services.